Franklin Park, IL

6:35 PM CDT en Septiembre 17, 2014 (GMT -0500)
Du Page | Change Station
CLOSE
Current Station
Aeropuerto
Location: Chicago DuPage,
Altura: 758 ft
Estaciones meteorológicas cercanas

Alt 758 ft 41.90 °N, 88.25 °W | Updated 43 minutes ago

Despejado
Despejado
69 ° F
Sensación térmica 69 ° F
N
4
Viento Variable Viento desde ENE

Hoy
Alta -- | Baja -- ° F
--% Posibilidad de precipitaciones
Ayer
Alta -- | Baja -- ° F
Precip. -- pul
6:33 AM 6:57 PM
Creciente menguante, 32% visible
Presión 29.97 pul
Visibilidad 10.0 Millas
Nubes Despejado
Punto de rocío 49 ° F
Humedad 49%
Precipitaciones 0.00 pul
Espesor de la nieve No disponible.
UV 1 de una escala de 12
Polen 5.20 de una escala de 12
Ozono Buena
PM2.5 Buena
Flu Activity No disponible.
METAR KDPA 172252Z 07003KT 10SM CLR 21/09 A2997 RMK AO2 SLP147 T02060094

More Conditions Fewer Conditions

Presión 29.97 pul
Visibilidad 10.0 Millas
Nubes Despejado
Punto de rocío 49 ° F
Humedad 49%
Precipitaciones 0.00 pul
Espesor de la nieve No disponible.
UV 1 de una escala de 12
Polen 5.20 de una escala de 12
Ozono Buena
PM2.5 Buena
Flu Activity No disponible.
METAR KDPA 172252Z 07003KT 10SM CLR 21/09 A2997 RMK AO2 SLP147 T02060094

More Conditions Fewer Conditions

10-Day Weather Forecast

Almanac

Astronomía

Sep. 17, 2014 Salida Puesta
Hora real 6:33 AM CDT 6:57 PM CDT
Crepúsculo civil 6:05 AM CDT 7:25 PM CDT
Crepúsculo náutico 5:32 AM CDT 7:58 PM CDT
Crepúsculo astronómico 4:59 AM CDT 8:31 PM CDT
Luna 12:29 AM CDT 3:10 PM CDT
Horas de luz 13h 19m
Horas de luz
12h 23m
Tomorrow will be 2m 47s shorter.
Creciente menguante, 32% of the Moon is Illuminated
Hoy
Creciente menguante
Sep 24
Nueva
Oct 1
Cuarto creciente
Oct 8
Luna llena
Oct 15
Cuarto menguante

Extremos de hoy

Máximos del estado Bajos del estado

Community

WunderPhotos

Upload Photos

1,754,192 ¡fotos cargadas!

Nearby

Calidad del aire

  Calidad del aire Índice AQ Contaminante
Ayer Buena
PM2.5
Ayer Buena
OZONE
Real Buena
OZONE
Real Buena
PM2.5
Miércoles Moderada
PM2.5
Jueves Moderada
PM2.5
Viernes Moderada
PM2.5

Grosos de nieve

Estación Profundido Altura
No tenemos constancia de nieve nueva.

Actividad de terremotos

Ciudad Distance Mag. Tiempo y dato
No hay informes recientes de la actividad sísmica.
Magnitud mínima muestra es 2,5.

Temperaturas de aguas costeras

Lugar Temperatura
Sin partes meteorológicos de las estaciones

Estaciones meteorológicas cercanas